Time;durP1;ratioP1;P1;durP2;ratioP2;P2;SDS_P1;SDS_P2;PMS_P1;PMS_P2;Temp;Humidity;BMP_temperature;BMP_pressure;BME280_temperature;BME280_humidity;BME280_pressure;Samples;Min_cycle;Max_cycle;Signal;HPM_P1;HPM_P2
2023/08/24 00:03:10;;;;;;;9.85;6.63;;;;;;;14.97;100.00;101579.28;10485542;28;20110;-76
2023/08/24 00:08:11;;;;;;;6.68;5.43;;;;;;;14.89;100.00;101579.84;10487065;28;22351;-76
2023/08/24 00:13:13;;;;;;;12.77;6.75;;;;;;;14.81;100.00;101569.88;10486707;28;20477;-76
2023/08/24 00:18:13;;;;;;;10.80;7.77;;;;;;;14.81;100.00;101546.16;10483232;28;20036;-76
2023/08/24 00:23:14;;;;;;;12.02;7.53;;;;;;;14.80;100.00;101549.63;10486163;28;20123;-76
2023/08/24 00:28:14;;;;;;;9.18;7.25;;;;;;;14.75;100.00;101556.44;10468255;28;20063;-76
2023/08/24 00:33:15;;;;;;;13.93;8.30;;;;;;;14.68;100.00;101557.00;10484152;28;20535;-76
2023/08/24 00:38:15;;;;;;;11.43;8.05;;;;;;;14.63;100.00;101561.16;10467507;28;20028;-77
2023/08/24 00:43:16;;;;;;;12.88;8.55;;;;;;;14.60;100.00;101551.38;10486059;28;20536;-77
2023/08/24 00:48:17;;;;;;;12.13;7.85;;;;;;;14.57;100.00;101551.25;10484686;28;20028;-76
2023/08/24 00:53:18;;;;;;;15.90;10.55;;;;;;;14.54;100.00;101543.22;10483620;28;20064;-77
2023/08/24 00:58:20;;;;;;;15.32;10.30;;;;;;;14.51;100.00;101543.09;10483260;28;20166;-77
2023/08/24 01:03:24;;;;;;;18.27;10.80;;;;;;;14.46;100.00;101547.28;10485452;28;20029;-77
2023/08/24 01:08:24;;;;;;;14.73;10.20;;;;;;;14.49;100.00;101540.41;10480149;28;20090;-76
2023/08/24 01:13:32;;;;;;;10.88;7.95;;;;;;;14.43;100.00;101539.22;10482717;28;20038;-76
2023/08/24 01:18:32;;;;;;;19.05;10.02;;;;;;;14.48;100.00;101543.88;10499648;28;20094;-77
2023/08/24 01:24:17;;;;;;;17.02;10.23;;;;;;;14.45;100.00;101537.56;10467301;28;20048;-77
2023/08/24 01:29:17;;;;;;;15.40;9.38;;;;;;;14.43;100.00;101520.81;10456639;28;20067;-76
2023/08/24 01:34:18;;;;;;;14.48;10.18;;;;;;;14.35;100.00;101516.09;10465931;28;20434;-77
2023/08/24 01:39:35;;;;;;;19.55;12.80;;;;;;;14.34;100.00;101509.03;10481462;28;20395;-76
2023/08/24 01:44:37;;;;;;;12.55;10.32;;;;;;;14.25;100.00;101500.75;10441805;28;20047;-77
2023/08/24 01:49:37;;;;;;;17.63;12.80;;;;;;;14.18;100.00;101504.88;10481931;28;20408;-76
2023/08/24 01:54:44;;;;;;;16.42;12.45;;;;;;;14.16;100.00;101503.91;10425725;28;20120;-77
2023/08/24 01:59:45;;;;;;;22.65;13.02;;;;;;;14.16;100.00;101522.34;10425070;28;20044;-76
2023/08/24 02:04:45;;;;;;;18.90;13.35;;;;;;;14.31;100.00;101524.72;10449524;28;20032;-76
2023/08/24 02:09:46;;;;;;;19.77;12.02;;;;;;;14.43;100.00;101516.44;10446136;28;20120;-77
2023/08/24 02:14:46;;;;;;;15.38;13.00;;;;;;;14.54;100.00;101512.53;10448081;28;20062;-77
2023/08/24 02:19:47;;;;;;;21.23;12.85;;;;;;;14.58;100.00;101507.38;10448698;28;20102;-77
2023/08/24 02:24:47;;;;;;;19.15;11.18;;;;;;;14.58;100.00;101488.94;10448541;28;20062;-76
2023/08/24 02:29:48;;;;;;;14.85;11.45;;;;;;;14.62;100.00;101477.69;10448975;28;20037;-76
2023/08/24 02:34:48;;;;;;;23.17;13.00;;;;;;;14.71;100.00;101470.22;10450457;28;20470;-76
2023/08/24 02:39:49;;;;;;;19.60;12.63;;;;;;;14.79;100.00;101476.69;10446884;28;20073;-76
2023/08/24 02:44:49;;;;;;;18.98;13.30;;;;;;;14.88;100.00;101480.53;10449274;28;20048;-76
2023/08/24 02:49:50;;;;;;;18.02;12.60;;;;;;;14.92;100.00;101485.09;10446573;28;20118;-76
2023/08/24 02:54:50;;;;;;;24.98;15.25;;;;;;;14.94;100.00;101478.13;10449604;28;20037;-77
2023/08/24 02:59:51;;;;;;;15.27;11.65;;;;;;;15.00;100.00;101491.56;10474051;28;20123;-76
2023/08/24 03:04:51;;;;;;;19.85;14.40;;;;;;;15.06;100.00;101504.06;10446909;28;20076;-76
2023/08/24 03:09:52;;;;;;;26.60;13.93;;;;;;;15.14;100.00;101512.28;10430775;28;20438;-77
2023/08/24 03:14:54;;;;;;;21.67;14.25;;;;;;;15.24;100.00;101504.78;10445351;28;20113;-76
2023/08/24 03:19:54;;;;;;;19.95;12.50;;;;;;;15.29;100.00;101483.88;10445850;28;20067;-76
2023/08/24 03:24:55;;;;;;;15.95;10.38;;;;;;;15.30;100.00;101468.94;10447077;28;20048;-77
2023/08/24 03:29:56;;;;;;;16.38;12.43;;;;;;;15.37;100.00;101453.41;10444870;28;20045;-76
2023/08/24 03:34:59;;;;;;;19.52;10.82;;;;;;;15.38;100.00;101433.19;10479236;28;20114;-76
2023/08/24 03:40:00;;;;;;;21.67;13.38;;;;;;;15.34;100.00;101412.81;10444732;28;20037;-76
2023/08/24 03:45:01;;;;;;;19.45;13.57;;;;;;;15.34;100.00;101412.81;10428357;28;20448;-76
2023/08/24 03:50:01;;;;;;;35.03;23.77;;;;;;;15.47;100.00;101390.44;10444535;28;20090;-76
2023/08/24 03:55:02;;;;;;;29.25;20.25;;;;;;;15.62;100.00;101361.97;10444345;28;20029;-75
2023/08/24 04:00:05;;;;;;;33.15;18.67;;;;;;;15.57;100.00;101353.88;10445072;28;20148;-76
2023/08/24 04:05:06;;;;;;;21.95;15.40;;;;;;;15.52;100.00;101363.38;10447112;28;20037;-76
2023/08/24 04:10:07;;;;;;;28.77;19.92;;;;;;;15.52;100.00;101336.13;10443571;28;20435;-76
2023/08/24 04:15:09;;;;;;;20.42;16.35;;;;;;;15.47;100.00;101306.94;10443780;28;20056;-76
2023/08/24 04:20:11;;;;;;;22.08;16.83;;;;;;;15.44;100.00;101298.91;10443703;28;20060;-76
2023/08/24 04:25:11;;;;;;;31.38;21.17;;;;;;;15.45;100.00;101289.28;10441977;28;20045;-76
2023/08/24 04:30:13;;;;;;;32.55;20.92;;;;;;;15.42;100.00;101290.03;10442290;28;20065;-76
2023/08/24 04:35:14;;;;;;;27.58;21.65;;;;;;;15.31;100.00;101310.78;10443700;28;20040;-76
2023/08/24 04:40:15;;;;;;;25.35;18.45;;;;;;;15.14;100.00;101314.56;10460127;28;20071;-76
2023/08/24 04:45:15;;;;;;;25.05;18.38;;;;;;;15.04;100.00;101311.59;10441613;28;20040;-76
2023/08/24 04:50:16;;;;;;;35.75;25.60;;;;;;;15.00;100.00;101309.69;10442288;28;20362;-76
2023/08/24 04:55:16;;;;;;;35.67;25.23;;;;;;;14.94;100.00;101307.72;10442406;28;20108;-75
2023/08/24 05:00:18;;;;;;;34.47;25.23;;;;;;;14.91;100.00;101312.88;10442337;28;20048;-76
2023/08/24 05:05:19;;;;;;;34.35;25.20;;;;;;;14.81;100.00;101319.53;10441922;28;20063;-76
2023/08/24 05:10:19;;;;;;;33.17;25.40;;;;;;;14.81;100.00;101313.38;10442057;28;20093;-75
2023/08/24 05:15:20;;;;;;;34.22;25.50;;;;;;;14.81;100.00;101301.09;10441432;28;20063;-76
2023/08/24 05:20:21;;;;;;;55.05;37.95;;;;;;;14.85;100.00;101294.19;10442564;28;20048;-76
2023/08/24 05:25:22;;;;;;;26.00;21.35;;;;;;;14.85;100.00;101286.28;10423856;28;20120;-76
2023/08/24 05:30:24;;;;;;;30.50;23.00;;;;;;;14.85;100.00;101280.13;10441525;28;20380;-77
2023/08/24 05:35:27;;;;;;;33.67;21.98;;;;;;;14.95;100.00;101280.50;10440383;28;20033;-77
2023/08/24 05:40:27;;;;;;;21.02;18.50;;;;;;;15.10;100.00;101271.34;10479643;28;20391;-77
2023/08/24 05:45:28;;;;;;;25.42;18.25;;;;;;;15.15;100.00;101282.09;10465176;28;20036;-77
2023/08/24 05:50:28;;;;;;;26.88;17.80;;;;;;;15.33;100.00;101281.81;10484211;28;20454;-77
2023/08/24 05:55:29;;;;;;;22.60;17.20;;;;;;;15.58;100.00;101267.75;10482330;28;20040;-76
2023/08/24 06:00:30;;;;;;;21.88;17.33;;;;;;;15.86;100.00;101273.94;10483126;28;20037;-77
2023/08/24 06:05:31;;;;;;;24.48;16.85;;;;;;;16.45;100.00;101275.78;10464928;28;20041;-76
2023/08/24 06:10:31;;;;;;;23.93;13.67;;;;;;;17.35;100.00;101274.75;10465031;28;20049;-76
2023/08/24 06:15:32;;;;;;;18.30;11.10;;;;;;;18.20;100.00;101264.50;10482858;28;20127;-77
2023/08/24 06:20:33;;;;;;;13.97;9.10;;;;;;;19.46;100.00;101218.34;10480821;28;20127;-78
2023/08/24 06:25:34;;;;;;;14.83;8.57;;;;;;;20.97;100.00;101149.47;10478331;28;20135;-78
2023/08/24 06:30:40;;;;;;;14.67;7.70;;;;;;;22.39;100.00;101161.91;10478395;28;20428;-78
2023/08/24 06:35:40;;;;;;;17.13;7.88;;;;;;;23.23;100.00;101172.75;10480581;28;20461;-77
2023/08/24 06:40:41;;;;;;;16.67;6.83;;;;;;;24.17;100.00;101196.72;10481939;28;20047;-77
2023/08/24 06:45:41;;;;;;;15.03;8.30;;;;;;;24.80;100.00;101194.63;10480699;28;20058;-77
2023/08/24 06:50:42;;;;;;;13.80;5.83;;;;;;;25.49;100.00;101198.59;10471545;28;20033;-78
2023/08/24 06:55:42;;;;;;;8.17;6.27;;;;;;;-147.65;100.00;57646.63;10488191;28;20033;-78
2023/08/24 07:00:43;;;;;;;12.97;7.17;;;;;;;-147.65;100.00;57646.63;10490699;28;20033;-78
2023/08/24 07:05:44;;;;;;;9.23;5.43;;;;;;;-147.65;100.00;57646.63;10487708;28;20271;-79
2023/08/24 07:10:45;;;;;;;10.57;6.72;;;;;;;-147.65;100.00;57646.63;10454585;28;20033;-79
2023/08/24 07:15:45;;;;;;;;;;;;;;;-147.65;100.00;57646.63;10505115;28;20127;-79
2023/08/24 07:20:46;;;;;;;8.43;5.30;;;;;;;-147.65;100.00;57646.63;10487405;28;19932;-78
2023/08/24 07:25:46;;;;;;;13.52;6.88;;;;;;;-147.65;100.00;57646.63;10487863;28;20074;-77
2023/08/24 07:30:47;;;;;;;8.52;5.35;;;;;;;-147.65;100.00;57646.63;10503571;28;20032;-77
2023/08/24 07:35:47;;;;;;;13.05;5.50;;;;;;;-147.65;100.00;57646.63;10487556;28;20050;-77
2023/08/24 07:40:48;;;;;;;;;;;;;;;-147.65;100.00;57646.63;10489069;28;20541;-77
2023/08/24 07:45:48;;;;;;;11.47;4.77;;;;;;;-147.65;100.00;57646.63;10488027;28;20475;-77
2023/08/24 07:50:49;;;;;;;8.40;3.85;;;;;;;-147.65;100.00;57646.63;10486831;28;20033;-77
2023/08/24 07:55:49;;;;;;;9.48;5.28;;;;;;;-147.65;100.00;57646.63;10502897;28;20073;-77
2023/08/24 08:00:51;;;;;;;;;;;;;;;-147.65;100.00;57646.63;10487794;28;20077;-77
2023/08/24 08:05:51;;;;;;;8.57;4.15;;;;;;;-147.65;100.00;57646.63;10486128;28;19962;-77
2023/08/24 08:10:59;;;;;;;9.68;4.57;;;;;;;-147.65;100.00;57646.63;10517976;28;20105;-76
2023/08/24 08:16:03;;;;;;;10.75;4.28;;;;;;;-147.65;100.00;57646.63;10485250;28;20040;-77
2023/08/24 08:21:15;;;;;;;14.32;4.28;;;;;;;-147.65;100.00;57646.63;10486278;28;20051;-76
2023/08/24 08:26:15;;;;;;;8.18;3.40;;;;;;;-147.65;100.00;57646.63;10487400;28;20439;-75
2023/08/24 08:31:16;;;;;;;8.38;2.80;;;;;;;-147.65;100.00;57646.63;10467630;28;20028;-75
2023/08/24 08:36:16;;;;;;;7.37;3.33;;;;;;;-147.65;100.00;57646.63;10486329;28;20048;-75
2023/08/24 08:41:17;;;;;;;12.43;4.43;;;;;;;-147.65;100.00;57646.63;10486038;28;20045;-75
2023/08/24 08:46:18;;;;;;;12.20;4.87;;;;;;;-147.65;100.00;57646.63;10467964;28;20266;-76
2023/08/24 08:51:18;;;;;;;12.50;5.33;;;;;;;-147.65;100.00;57646.63;10517352;28;20085;-76
2023/08/24 08:56:19;;;;;;;9.40;4.17;;;;;;;-147.65;100.00;57646.63;10483805;28;20033;-76
2023/08/24 09:01:19;;;;;;;6.70;3.53;;;;;;;-147.65;100.00;57646.63;10485926;28;20271;-76
2023/08/24 09:06:20;;;;;;;9.18;3.60;;;;;;;-147.65;100.00;57646.63;10483417;28;20520;-76
2023/08/24 09:11:21;;;;;;;;;;;;;;;-147.65;100.00;57646.63;10483060;28;20549;-76
2023/08/24 09:16:21;;;;;;;7.43;4.00;;;;;;;-147.65;100.00;57646.63;10466490;28;19962;-76
2023/08/24 09:21:23;;;;;;;8.77;3.30;;;;;;;-147.65;100.00;57646.63;10466372;28;20120;-77
2023/08/24 09:26:33;;;;;;;7.82;4.25;;;;;;;-147.65;100.00;57646.63;10465988;28;20321;-77
2023/08/24 09:31:37;;;;;;;9.20;3.88;;;;;;;-147.65;100.00;57646.63;10482634;28;20052;-76
2023/08/24 09:36:37;;;;;;;6.30;3.63;;;;;;;-147.65;100.00;57646.63;10483301;28;20058;-75
2023/08/24 09:41:44;;;;;;;8.02;3.05;;;;;;;-147.65;100.00;57646.63;10484002;28;20071;-75
2023/08/24 09:46:44;;;;;;;9.70;3.70;;;;;;;-147.65;100.00;57646.63;10410662;28;20037;-75
2023/08/24 09:51:45;;;;;;;8.23;3.40;;;;;;;-147.65;100.00;57646.63;10441045;28;20494;-76
2023/08/24 09:56:45;;;;;;;7.67;3.20;;;;;;;-147.65;100.00;57646.63;10457576;28;20286;-76
2023/08/24 10:01:47;;;;;;;7.33;3.50;;;;;;;-147.65;100.00;57646.63;10474277;28;20045;-76
2023/08/24 10:06:51;;;;;;;5.85;3.45;;;;;;;-147.65;100.00;57646.63;10495870;28;20033;-75
2023/08/24 10:11:54;;;;;;;8.93;3.22;;;;;;;-147.65;100.00;57646.63;10465102;28;20109;-76
2023/08/24 10:16:55;;;;;;;7.63;3.65;;;;;;;-147.65;100.00;57646.63;10481847;28;20051;-77
2023/08/24 10:21:57;;;;;;;7.10;4.45;;;;;;;-147.65;100.00;57646.63;10485728;28;20098;-77
2023/08/24 10:26:57;;;;;;;13.23;3.22;;;;;;;-147.65;100.00;57646.63;10489412;28;20139;-77
2023/08/24 10:31:58;;;;;;;9.90;4.97;;;;;;;-147.65;100.00;57646.63;10456748;28;20047;-77
2023/08/24 10:37:12;;;;;;;9.17;3.47;;;;;;;-147.65;100.00;57646.63;10472265;28;20658;-77
2023/08/24 10:42:13;;;;;;;8.43;4.22;;;;;;;-147.65;100.00;57646.63;10472203;28;20492;-77
2023/08/24 10:47:14;;;;;;;14.30;4.55;;;;;;;-147.65;100.00;57646.63;10490872;28;20122;-77
2023/08/24 10:52:24;;;;;;;7.07;3.67;;;;;;;-147.65;100.00;57646.63;10490090;28;20403;-78
2023/08/24 10:57:28;;;;;;;6.30;3.72;;;;;;;-147.65;100.00;57646.63;10488209;28;20024;-78
2023/08/24 11:02:29;;;;;;;5.90;3.47;;;;;;;-147.65;100.00;57646.63;10456374;28;20028;-77
2023/08/24 11:07:29;;;;;;;6.30;3.40;;;;;;;-147.65;100.00;57646.63;10522438;28;20131;-76
2023/08/24 11:12:52;;;;;;;5.73;4.33;;;;;;;-147.65;100.00;57646.63;10489384;28;20064;-76
2023/08/24 11:18:11;;;;;;;8.73;3.88;;;;;;;-147.65;100.00;57646.63;10487451;28;20040;-76
2023/08/24 11:23:12;;;;;;;11.80;3.95;;;;;;;-147.65;100.00;57646.63;10469838;28;20041;-76
2023/08/24 11:28:19;;;;;;;13.30;8.20;;;;;;;-147.65;100.00;57646.63;10484668;28;20558;-77
2023/08/24 11:33:28;;;;;;;10.23;5.30;;;;;;;-147.65;100.00;57646.63;10484990;28;20028;-79
2023/08/24 11:38:58;;;;;;;10.38;5.55;;;;;;;-147.65;100.00;57646.63;10470566;28;20473;-78
2023/08/24 11:44:00;;;;;;;7.63;4.85;;;;;;;-147.65;100.00;57646.63;10485437;28;20040;-78
2023/08/24 11:49:00;;;;;;;30.48;18.40;;;;;;;-147.65;100.00;57646.63;10487032;28;20055;-79
2023/08/24 11:54:01;;;;;;;14.33;7.97;;;;;;;-147.65;100.00;57646.63;10483138;28;20136;-79
2023/08/24 11:59:01;;;;;;;16.23;6.80;;;;;;;-147.65;100.00;57646.63;10486443;28;20061;-79
2023/08/24 12:04:02;;;;;;;11.70;6.53;;;;;;;-147.65;100.00;57646.63;10468547;28;20063;-79
2023/08/24 12:09:04;;;;;;;16.13;7.97;;;;;;;-147.65;100.00;57646.63;10467055;28;20089;-78
2023/08/24 12:14:07;;;;;;;9.07;5.43;;;;;;;-147.65;100.00;57646.63;10486765;27;20182;-77
2023/08/24 12:19:07;;;;;;;11.00;5.40;;;;;;;-147.65;100.00;57646.63;10467376;28;20075;-77
2023/08/24 12:24:09;;;;;;;10.20;4.90;;;;;;;-147.65;100.00;57646.63;10485984;28;20384;-77
2023/08/24 12:29:09;;;;;;;10.75;5.45;;;;;;;-147.65;100.00;57646.63;10480082;28;20052;-78
2023/08/24 12:34:10;;;;;;;6.47;4.20;;;;;;;-147.65;100.00;57646.63;10443016;28;20041;-78
2023/08/24 12:39:12;;;;;;;8.53;5.13;;;;;;;-147.65;100.00;57646.63;10465536;28;20060;-77
2023/08/24 12:44:14;;;;;;;9.15;4.93;;;;;;;-147.65;100.00;57646.63;10467262;28;20032;-78
2023/08/24 12:49:14;;;;;;;;;;;;;;;-147.65;100.00;57646.63;10484083;28;20037;-78
2023/08/24 12:54:15;;;;;;;9.23;4.57;;;;;;;-147.65;100.00;57646.63;10485082;28;20271;-78
2023/08/24 12:59:15;;;;;;;7.13;4.70;;;;;;;-147.65;100.00;57646.63;10482666;28;20047;-78
2023/08/24 13:04:16;;;;;;;9.50;3.60;;;;;;;-147.65;100.00;57646.63;10454435;28;20041;-78
2023/08/24 13:09:16;;;;;;;7.00;3.63;;;;;;;-147.65;100.00;57646.63;10434130;28;20447;-80
2023/08/24 13:14:17;;;;;;;11.33;5.27;;;;;;;-147.65;100.00;57646.63;10442122;28;20041;-80
2023/08/24 13:19:17;;;;;;;10.50;5.67;;;;;;;-147.65;100.00;57646.63;10438668;28;20086;-80
2023/08/24 13:24:18;;;;;;;7.70;3.83;;;;;;;-147.65;100.00;57646.63;10410832;28;20152;-77
2023/08/24 13:29:18;;;;;;;9.77;5.43;;;;;;;-147.65;100.00;57646.63;10425657;28;20492;-79
2023/08/24 13:34:19;;;;;;;10.47;5.10;;;;;;;-147.65;100.00;57646.63;10480909;28;20036;-78
2023/08/24 13:39:19;;;;;;;12.30;5.63;;;;;;;-147.65;100.00;57646.63;10514703;28;20162;-76
2023/08/24 13:44:20;;;;;;;10.47;5.47;;;;;;;-147.65;100.00;57646.63;10457333;28;20128;-76
2023/08/24 13:49:20;;;;;;;7.00;5.20;;;;;;;-147.65;100.00;57646.63;10412240;28;20051;-77
2023/08/24 13:54:21;;;;;;;10.97;5.57;;;;;;;-147.65;100.00;57646.63;10411107;28;20576;-76
2023/08/24 13:59:22;;;;;;;10.90;5.40;;;;;;;-147.65;100.00;57646.63;10440993;28;20044;-77
2023/08/24 14:04:22;;;;;;;9.30;5.27;;;;;;;-147.65;100.00;57646.63;10431433;28;20037;-77
2023/08/24 14:09:23;;;;;;;6.90;4.97;;;;;;;-147.65;100.00;57646.63;10409293;28;20124;-78
2023/08/24 14:14:23;;;;;;;13.23;5.50;;;;;;;-147.65;100.00;57646.63;10417998;28;20049;-78
2023/08/24 14:19:24;;;;;;;9.03;5.57;;;;;;;-147.65;100.00;57646.63;10423705;28;20048;-79
2023/08/24 14:24:25;;;;;;;12.83;5.80;;;;;;;-147.65;100.00;57646.63;10445488;28;20048;-79
2023/08/24 14:29:25;;;;;;;11.67;6.20;;;;;;;-147.65;100.00;57646.63;10460140;28;20116;-79
2023/08/24 14:34:26;;;;;;;9.13;6.40;;;;;;;-147.65;100.00;57646.63;10445251;28;20046;-77
2023/08/24 14:39:26;;;;;;;8.57;6.67;;;;;;;-147.65;100.00;57646.63;10425529;28;20044;-78
2023/08/24 14:44:27;;;;;;;12.47;5.40;;;;;;;-147.65;100.00;57646.63;10449811;28;20638;-77
2023/08/24 14:49:28;;;;;;;11.70;4.60;;;;;;;-147.65;100.00;57646.63;10481504;28;20197;-79
2023/08/24 14:54:28;;;;;;;9.47;3.93;;;;;;;-147.65;100.00;57646.63;10467516;28;20450;-80
2023/08/24 14:59:29;;;;;;;10.00;5.13;;;;;;;-147.65;100.00;57646.63;10496783;28;20045;-77
2023/08/24 15:04:29;;;;;;;9.63;3.93;;;;;;;-147.65;100.00;57646.63;10460080;28;20397;-81
2023/08/24 15:09:31;;;;;;;5.47;3.20;;;;;;;-147.65;100.00;57646.63;10482160;28;20040;-79
2023/08/24 15:14:32;;;;;;;8.57;3.47;;;;;;;-147.65;100.00;57646.63;10474759;28;20052;-79
2023/08/24 15:19:32;;;;;;;7.33;4.17;;;;;;;-147.65;100.00;57646.63;10503986;28;20066;-79
2023/08/24 15:24:33;;;;;;;9.50;4.13;;;;;;;-147.65;100.00;57646.63;10482070;28;20096;-80
2023/08/24 15:29:33;;;;;;;9.50;4.03;;;;;;;-147.65;100.00;57646.63;10505292;28;20044;-80
2023/08/24 15:34:34;;;;;;;11.83;4.33;;;;;;;-147.65;100.00;57646.63;10494552;28;20036;-79
2023/08/24 15:39:39;;;;;;;5.03;2.70;;;;;;;-147.65;100.00;57646.63;10479918;28;20051;-80
2023/08/24 15:44:40;;;;;;;6.45;2.67;;;;;;;-147.65;100.00;57646.63;10503974;28;20041;-79
2023/08/24 15:49:41;;;;;;;8.20;2.45;;;;;;;-147.65;100.00;57646.63;10474542;28;20036;-78
2023/08/24 15:54:42;;;;;;;3.47;2.63;;;;;;;-147.65;100.00;57646.63;10479119;28;20496;-79
2023/08/24 15:59:42;;;;;;;4.50;1.97;;;;;;;-147.65;100.00;57646.63;10426922;28;20120;-77
2023/08/24 16:04:43;;;;;;;9.07;3.93;;;;;;;-147.65;100.00;57646.63;10417534;28;20139;-78
2023/08/24 16:09:44;;;;;;;3.30;1.77;;;;;;;-147.65;100.00;57646.63;10431534;28;20064;-78
2023/08/24 16:14:44;;;;;;;3.80;1.83;;;;;;;-147.65;100.00;57646.63;10415628;28;20463;-78
2023/08/24 16:19:45;;;;;;;3.50;1.50;;;;;;;-147.65;100.00;57646.63;10418260;28;20033;-79
2023/08/24 16:24:45;;;;;;;7.40;3.17;;;;;;;-147.65;100.00;57646.63;10426149;28;20037;-78
2023/08/24 16:29:46;;;;;;;2.00;1.27;;;;;;;-147.65;100.00;57646.63;10431019;28;20047;-79
2023/08/24 16:34:46;;;;;;;4.33;1.30;;;;;;;-147.65;100.00;57646.63;10423198;28;20056;-78
2023/08/24 16:39:47;;;;;;;3.47;1.77;;;;;;;-147.65;100.00;57646.63;10455207;28;20041;-79
2023/08/24 16:44:48;;;;;;;3.30;1.47;;;;;;;-147.65;100.00;57646.63;10427308;28;20041;-78
2023/08/24 16:49:48;;;;;;;4.53;1.90;;;;;;;-147.65;100.00;57646.63;10415584;28;20044;-78
2023/08/24 16:54:49;;;;;;;9.80;3.03;;;;;;;-147.65;100.00;57646.63;10413896;28;20124;-78
2023/08/24 16:59:50;;;;;;;3.55;1.25;;;;;;;-147.65;100.00;57646.63;10422901;28;20097;-78
2023/08/24 17:04:50;;;;;;;5.03;1.70;;;;;;;-147.65;100.00;57646.63;10458318;28;20509;-78
2023/08/24 17:09:51;;;;;;;5.80;1.77;;;;;;;-147.65;100.00;57646.63;10476492;28;20050;-78
2023/08/24 17:14:51;;;;;;;4.30;1.43;;;;;;;-147.65;100.00;57646.63;10481926;28;20844;-78
2023/08/24 17:19:52;;;;;;;7.03;1.27;;;;;;;-147.65;100.00;57646.63;10464425;28;20071;-79
2023/08/24 17:24:53;;;;;;;4.10;1.50;;;;;;;-147.65;100.00;57646.63;10424590;28;20037;-78
2023/08/24 17:29:53;;;;;;;5.13;3.77;;;;;;;-147.65;100.00;57646.63;10420053;28;20043;-78
2023/08/24 17:34:54;;;;;;;4.40;1.97;;;;;;;-147.65;100.00;57646.63;10423321;28;20033;-78
2023/08/24 17:39:54;;;;;;;13.03;3.03;;;;;;;-147.65;100.00;57646.63;10446890;28;20554;-77
2023/08/24 17:44:55;;;;;;;4.77;2.20;;;;;;;-147.65;100.00;57646.63;10421105;28;20032;-77
2023/08/24 17:49:56;;;;;;;4.63;1.50;;;;;;;-147.65;100.00;57646.63;10427214;28;20045;-77
2023/08/24 17:54:57;;;;;;;10.30;1.93;;;;;;;-147.65;100.00;57646.63;10395031;28;20090;-77
2023/08/24 17:59:58;;;;;;;3.63;1.63;;;;;;;-147.65;100.00;57646.63;10434782;28;20041;-77
2023/08/24 18:04:58;;;;;;;7.03;2.30;;;;;;;-147.65;100.00;57646.63;10435920;28;20103;-77
2023/08/24 18:09:59;;;;;;;6.67;1.73;;;;;;;-147.65;100.00;57646.63;10469978;28;20457;-77
2023/08/24 18:14:59;;;;;;;5.37;2.20;;;;;;;-147.65;100.00;57646.63;10436624;28;20090;-76
2023/08/24 18:20:00;;;;;;;8.50;2.73;;;;;;;-147.65;100.00;57646.63;10437688;28;20064;-76
2023/08/24 18:25:01;;;;;;;6.68;2.45;;;;;;;-147.65;100.00;57646.63;10424159;28;20044;-77
2023/08/24 18:30:02;;;;;;;5.75;2.35;;;;;;;-147.65;100.00;57646.63;10408804;28;20037;-76
2023/08/24 18:35:04;;;;;;;4.05;2.72;;;;;;;-147.65;100.00;57646.63;10406355;28;20056;-80
2023/08/24 18:40:06;;;;;;;3.80;1.90;;;;;;;-147.65;100.00;57646.63;10401766;28;20119;-82
2023/08/24 18:45:06;;;;;;;3.75;2.40;;;;;;;-147.65;100.00;57646.63;10394849;28;20300;-77
2023/08/24 18:50:07;;;;;;;6.22;3.63;;;;;;;-147.65;100.00;57646.63;10419269;28;20048;-77
2023/08/24 18:55:08;;;;;;;4.82;2.13;;;;;;;-147.65;100.00;57646.63;10432593;28;20073;-77
2023/08/24 19:00:09;;;;;;;8.25;3.22;;;;;;;-147.65;100.00;57646.63;10433358;28;20068;-77
2023/08/24 19:05:10;;;;;;;5.97;3.00;;;;;;;-147.65;100.00;57646.63;10438302;28;20084;-77
2023/08/24 19:10:10;;;;;;;11.45;3.65;;;;;;;-147.65;100.00;57646.63;10420145;28;20120;-77
2023/08/24 19:15:11;;;;;;;6.15;4.45;;;;;;;-147.65;100.00;57646.63;10464716;28;20127;-77
2023/08/24 19:20:12;;;;;;;6.15;4.25;;;;;;;-147.65;100.00;57646.63;10418849;28;21554;-77
2023/08/24 19:25:13;;;;;;;7.63;3.47;;;;;;;-147.65;100.00;57646.63;10470818;28;20032;-77
2023/08/24 19:30:14;;;;;;;9.20;4.17;;;;;;;-147.65;100.00;57646.63;10484536;28;20045;-77
2023/08/24 19:35:14;;;;;;;8.57;3.53;;;;;;;-147.65;100.00;57646.63;10469350;28;20493;-77
2023/08/24 19:40:15;;;;;;;6.65;3.83;;;;;;;-147.65;100.00;57646.63;10464986;28;20071;-78
2023/08/24 19:45:16;;;;;;;7.75;4.20;;;;;;;-147.65;100.00;57646.63;10463484;28;20036;-78
2023/08/24 19:50:17;;;;;;;6.40;4.65;;;;;;;-147.65;100.00;57646.63;10469811;28;20048;-78
2023/08/24 19:55:17;;;;;;;5.32;4.35;;;;;;;-147.65;100.00;57646.63;10472507;28;20033;-78
2023/08/24 20:00:20;;;;;;;10.75;4.68;;;;;;;-147.65;100.00;57646.63;10469309;28;20044;-78
2023/08/24 20:05:22;;;;;;;8.02;4.53;;;;;;;-147.65;100.00;57646.63;10490887;28;22117;-78
2023/08/24 20:10:24;;;;;;;7.80;4.78;;;;;;;-147.65;100.00;57646.63;10489533;28;20124;-77
2023/08/24 20:15:25;;;;;;;;;;;;;;;-147.65;100.00;57646.63;10478158;28;20036;-78
2023/08/24 20:20:25;;;;;;;10.27;5.15;;;;;;;-147.65;100.00;57646.63;10483325;28;19925;-78
2023/08/24 20:25:26;;;;;;;13.30;5.88;;;;;;;-147.65;100.00;57646.63;10477630;28;20057;-78
2023/08/24 20:30:26;;;;;;;8.77;6.72;;;;;;;-147.65;100.00;57646.63;10474141;28;20064;-77
2023/08/24 20:35:27;;;;;;;9.45;4.93;;;;;;;-147.65;100.00;57646.63;10477733;28;20088;-77
2023/08/24 20:40:27;;;;;;;8.70;5.28;;;;;;;-147.65;100.00;57646.63;10455559;28;20044;-77
2023/08/24 20:45:29;;;;;;;7.72;5.13;;;;;;;-147.65;100.00;57646.63;10479914;28;20510;-76
2023/08/24 20:50:30;;;;;;;12.53;5.10;;;;;;;-147.65;100.00;57646.63;10475567;28;20060;-77
2023/08/24 20:55:32;;;;;;;7.47;4.95;;;;;;;-147.65;100.00;57646.63;10483659;28;20067;-77
2023/08/24 21:00:33;;;;;;;7.60;5.30;;;;;;;-147.65;100.00;57646.63;10459553;28;20095;-77
2023/08/24 21:05:33;;;;;;;11.05;5.55;;;;;;;-147.65;100.00;57646.63;10485063;28;20131;-77
2023/08/24 21:10:34;;;;;;;9.98;7.47;;;;;;;-147.65;100.00;57646.63;10480926;28;20485;-77
2023/08/24 21:15:35;;;;;;;9.18;5.85;;;;;;;-147.65;100.00;57646.63;10493600;28;20040;-77
2023/08/24 21:20:36;;;;;;;8.05;5.55;;;;;;;-147.65;100.00;57646.63;10480570;28;20041;-77
2023/08/24 21:25:36;;;;;;;10.68;6.07;;;;;;;-147.65;100.00;57646.63;10489325;28;20560;-77
2023/08/24 21:30:37;;;;;;;16.73;6.20;;;;;;;-147.65;100.00;57646.63;10487645;28;20045;-76
2023/08/24 21:35:37;;;;;;;16.00;5.63;;;;;;;-147.65;100.00;57646.63;10457320;28;20051;-77
2023/08/24 21:40:40;;;;;;;9.50;5.72;;;;;;;-147.65;100.00;57646.63;10414340;28;20485;-76
2023/08/24 21:45:41;;;;;;;8.93;5.20;;;;;;;-147.65;100.00;57646.63;10427280;28;20071;-77
2023/08/24 21:50:41;;;;;;;6.88;4.80;;;;;;;-147.65;100.00;57646.63;10428057;28;20037;-77
2023/08/24 21:55:42;;;;;;;9.35;4.57;;;;;;;-147.65;100.00;57646.63;10432182;28;20039;-77
2023/08/24 22:00:43;;;;;;;9.80;4.90;;;;;;;-147.65;100.00;57646.63;10429238;28;20037;-78
2023/08/24 22:05:44;;;;;;;7.67;4.63;;;;;;;-147.65;100.00;57646.63;10460791;28;20048;-77
2023/08/24 22:10:44;;;;;;;7.68;4.70;;;;;;;-147.65;100.00;57646.63;10429921;28;20052;-77
2023/08/24 22:15:45;;;;;;;10.48;4.75;;;;;;;-147.65;100.00;57646.63;10428547;28;20132;-77
2023/08/24 22:20:46;;;;;;;15.25;5.13;;;;;;;-147.65;100.00;57646.63;10437941;28;20041;-77
2023/08/24 22:25:46;;;;;;;18.90;7.13;;;;;;;-147.65;100.00;57646.63;10439151;28;20059;-77
2023/08/24 22:30:48;;;;;;;11.73;7.00;;;;;;;-147.65;100.00;57646.63;10441327;28;20472;-77